Terminal Aerodrome Forecast
Issued by NWS Glasgow, MT

Home | Current Version | Previous Version | Text Only | Print | Product List | Glossary On
Versions: 1 2 3 4 5 6 7 8 9 10 11 12
574
FTUS45 KGGW 170522
TAFGGW
TAF
KGGW 170522Z 1706/1806 14010KT P6SM FEW190 SCT200
     FM171600 16004KT P6SM FEW230 SCT250 WS020/28025KT
     FM180100 21006KT P6SM SCT002 BKN015=

USA.gov is the U.S. government's official web portal to all federal, state and local government web resources and services.